Time;durP1;ratioP1;P1;durP2;ratioP2;P2;SDS_P1;SDS_P2;PMS_P1;PMS_P2;Temp;Humidity;BMP_temperature;BMP_pressure;BME280_temperature;BME280_humidity;BME280_pressure;Samples;Min_cycle;Max_cycle;Signal;HPM_P1;HPM_P2
2022/11/19 00:01:44;;;;;;;9.68;7.30;;;-3.10;99.90;;;;;;5074523;28;20024;-53
2022/11/19 00:04:10;;;;;;;10.90;7.65;;;-3.10;99.90;;;;;;5071905;28;20024;-51
2022/11/19 00:06:35;;;;;;;10.93;7.65;;;-3.10;99.90;;;;;;5071523;28;20017;-54
2022/11/19 00:09:01;;;;;;;9.20;7.03;;;-3.10;99.90;;;;;;5071474;28;20111;-54
2022/11/19 00:14:13;;;;;;;11.77;7.57;;;-3.10;99.90;;;;;;5071334;28;20511;-56
2022/11/19 00:16:40;;;;;;;14.20;7.65;;;-3.10;99.90;;;;;;5071083;28;20013;-52
2022/11/19 00:19:06;;;;;;;10.23;7.15;;;-3.10;99.90;;;;;;5070928;28;20029;-53
2022/11/19 00:21:32;;;;;;;13.70;7.07;;;-3.20;99.90;;;;;;5070644;28;20036;-54
2022/11/19 00:23:58;;;;;;;12.57;7.05;;;-3.20;99.90;;;;;;5071062;28;20025;-54
2022/11/19 00:26:24;;;;;;;10.48;6.80;;;-3.20;99.90;;;;;;5070139;28;20033;-58
2022/11/19 00:28:49;;;;;;;10.27;6.80;;;-3.30;99.90;;;;;;5070203;28;20028;-57
2022/11/19 00:31:15;;;;;;;11.20;6.40;;;-3.30;99.90;;;;;;5062474;28;20115;-54
2022/11/19 00:33:43;;;;;;;7.90;5.90;;;-3.30;99.90;;;;;;5070941;28;20032;-58
2022/11/19 00:36:11;;;;;;;7.93;5.70;;;-3.30;99.90;;;;;;5069961;28;20025;-56
2022/11/19 00:38:37;;;;;;;8.48;6.20;;;-3.40;99.90;;;;;;5070580;28;20037;-57
2022/11/19 00:41:03;;;;;;;8.52;5.70;;;-3.40;99.90;;;;;;5062404;28;20032;-55
2022/11/19 00:43:46;;;;;;;7.40;5.88;;;-3.40;99.90;;;;;;5064356;28;20348;-56
2022/11/19 00:46:14;;;;;;;7.75;5.70;;;-3.40;99.90;;;;;;5070298;28;20111;-56
2022/11/19 00:48:39;;;;;;;7.97;5.70;;;-3.40;99.90;;;;;;5070253;28;20025;-54
2022/11/19 00:51:08;;;;;;;10.50;5.72;;;-3.40;99.90;;;;;;5070241;28;20032;-56
2022/11/19 00:53:34;;;;;;;11.43;5.85;;;-3.40;99.90;;;;;;5070388;28;20060;-57
2022/11/19 00:56:05;;;;;;;8.10;5.60;;;-3.40;99.90;;;;;;5069355;28;20029;-58
2022/11/19 00:58:31;;;;;;;8.70;6.03;;;-3.30;99.90;;;;;;5070477;28;20021;-55
2022/11/19 01:00:57;;;;;;;9.05;6.38;;;-3.30;99.90;;;;;;5069887;28;20065;-59
2022/11/19 01:03:23;;;;;;;7.47;5.50;;;-3.30;99.90;;;;;;5069881;28;20484;-56
2022/11/19 01:05:49;;;;;;;7.80;5.60;;;-3.30;99.90;;;;;;5061792;28;20025;-55
2022/11/19 01:08:15;;;;;;;9.07;6.68;;;-3.40;99.90;;;;;;5070114;28;20031;-58
2022/11/19 01:10:41;;;;;;;7.82;6.03;;;-3.40;99.90;;;;;;5069700;28;20565;-55
2022/11/19 01:15:51;;;;;;;12.13;5.57;;;-3.50;99.90;;;;;;5067431;28;20032;-57
2022/11/19 01:18:17;;;;;;;6.43;4.70;;;-3.60;99.90;;;;;;5069285;28;20040;-57
2022/11/19 01:20:43;;;;;;;7.05;5.20;;;-3.60;99.90;;;;;;5070240;28;20074;-57
2022/11/19 01:23:08;;;;;;;8.18;4.95;;;-3.60;99.90;;;;;;5069435;28;20064;-56
2022/11/19 01:25:35;;;;;;;7.68;4.80;;;-3.60;99.90;;;;;;5062181;28;20065;-55
2022/11/19 01:28:01;;;;;;;7.72;4.85;;;-3.60;99.90;;;;;;5060639;28;20021;-55
2022/11/19 01:30:26;;;;;;;7.82;5.40;;;-3.60;99.90;;;;;;5068986;28;20047;-56
2022/11/19 01:32:52;;;;;;;6.55;4.97;;;-3.60;99.90;;;;;;5065850;28;20032;-53
2022/11/19 01:35:17;;;;;;;7.25;5.00;;;-3.60;99.90;;;;;;5069463;28;20074;-56
2022/11/19 01:37:43;;;;;;;4.82;4.28;;;-3.60;99.90;;;;;;5069106;28;20405;-54
2022/11/19 01:40:09;;;;;;;9.25;5.10;;;-3.70;99.90;;;;;;5068987;28;20498;-57
2022/11/19 01:42:52;;;;;;;7.20;5.13;;;-3.60;99.90;;;;;;5056957;28;20033;-59
2022/11/19 01:45:18;;;;;;;8.07;4.88;;;-3.70;99.90;;;;;;5061495;28;20025;-55
2022/11/19 01:47:44;;;;;;;6.38;4.90;;;-3.70;99.90;;;;;;5068750;28;20027;-60
2022/11/19 01:50:10;;;;;;;9.63;5.40;;;-3.60;99.90;;;;;;5067239;28;21176;-55
2022/11/19 01:52:36;;;;;;;7.63;4.85;;;-3.60;99.90;;;;;;5068549;28;20496;-54
2022/11/19 01:55:01;;;;;;;11.43;6.05;;;-3.60;99.90;;;;;;5069088;28;20096;-56
2022/11/19 01:57:27;;;;;;;5.60;4.25;;;-3.60;99.90;;;;;;5069248;28;20027;-57
2022/11/19 01:59:53;;;;;;;9.05;5.75;;;-3.60;99.90;;;;;;5065797;28;20063;-57
2022/11/19 02:02:21;;;;;;;9.35;5.47;;;-3.70;99.90;;;;;;5066429;28;20028;-55
2022/11/19 02:04:50;;;;;;;8.60;5.97;;;-3.70;99.90;;;;;;5068150;28;20021;-57
2022/11/19 02:07:17;;;;;;;7.82;5.55;;;-3.70;99.90;;;;;;5061214;28;20472;-56
2022/11/19 02:09:44;;;;;;;8.95;6.13;;;-3.70;99.90;;;;;;5068628;28;20032;-54
2022/11/19 02:12:23;;;;;;;9.63;5.82;;;-3.70;99.90;;;;;;5068491;28;20098;-54
2022/11/19 02:15:13;;;;;;;8.07;5.90;;;-3.70;99.90;;;;;;5067681;28;20635;-55
2022/11/19 02:17:41;;;;;;;9.52;5.13;;;-3.70;99.90;;;;;;5072344;28;20545;-59
2022/11/19 02:20:29;;;;;;;8.15;5.63;;;-3.70;99.90;;;;;;5070791;28;20029;-57
2022/11/19 02:23:26;;;;;;;10.98;6.68;;;-3.70;99.90;;;;;;5068398;28;20016;-55
2022/11/19 02:26:03;;;;;;;8.32;5.88;;;-3.80;99.90;;;;;;5065613;28;20028;-55
2022/11/19 02:28:44;;;;;;;8.23;5.88;;;-3.80;99.90;;;;;;5068317;28;20029;-54
2022/11/19 02:31:27;;;;;;;9.65;5.65;;;-3.80;99.90;;;;;;5068406;28;20067;-56
2022/11/19 02:34:04;;;;;;;9.23;5.78;;;-3.80;99.90;;;;;;5068803;28;20029;-57
2022/11/19 02:36:39;;;;;;;9.00;6.40;;;-3.90;99.90;;;;;;5069365;28;20028;-57
2022/11/19 02:39:29;;;;;;;9.75;6.38;;;-3.90;99.90;;;;;;5068496;28;20111;-55
2022/11/19 02:42:11;;;;;;;7.97;5.50;;;-3.90;99.90;;;;;;5068388;28;20415;-58
2022/11/19 02:45:01;;;;;;;8.68;5.35;;;-4.00;99.90;;;;;;5068788;28;20029;-55
2022/11/19 02:47:36;;;;;;;9.05;5.50;;;-4.00;99.90;;;;;;5063396;28;20104;-57
2022/11/19 02:50:14;;;;;;;9.18;6.43;;;-4.00;99.90;;;;;;5068503;28;20028;-58
2022/11/19 02:52:41;;;;;;;9.00;6.05;;;-4.00;99.90;;;;;;5068051;28;20029;-58
2022/11/19 02:55:10;;;;;;;9.02;6.05;;;-4.00;99.90;;;;;;5068639;28;20031;-55
2022/11/19 02:57:37;;;;;;;8.75;5.45;;;-4.00;99.90;;;;;;5059020;28;20208;-55
2022/11/19 03:06:08;;;;;;;9.68;5.95;;;-4.10;99.90;;;;;;5072867;28;20067;-55
2022/11/19 03:08:34;;;;;;;11.13;5.90;;;-4.20;99.90;;;;;;5054403;28;20118;-54
2022/11/19 03:11:13;;;;;;;7.97;5.97;;;-4.20;99.90;;;;;;5074474;28;20107;-58
2022/11/19 03:17:20;;;;;;;8.73;6.53;;;-4.10;99.90;;;;;;5070985;28;20035;-56
2022/11/19 03:20:02;;;;;;;8.85;6.25;;;-4.10;99.90;;;;;;5067767;28;20036;-55
2022/11/19 03:22:33;;;;;;;8.10;6.22;;;-4.10;99.90;;;;;;5066616;28;20025;-56
2022/11/19 03:25:11;;;;;;;8.75;6.50;;;-4.10;99.90;;;;;;5069354;28;20078;-56
2022/11/19 03:27:43;;;;;;;9.88;6.82;;;-4.20;99.90;;;;;;5069763;28;20016;-55
2022/11/19 03:30:09;;;;;;;11.50;6.03;;;-4.20;99.90;;;;;;5065423;28;20059;-56
2022/11/19 03:32:44;;;;;;;9.07;5.93;;;-4.20;99.90;;;;;;5096399;22;20051;-58
2022/11/19 03:35:29;;;;;;;7.97;5.70;;;-4.20;99.90;;;;;;5073603;28;20040;-58
2022/11/19 03:38:00;;;;;;;9.35;5.55;;;-4.20;99.90;;;;;;5078597;28;20020;-59
2022/11/19 03:40:29;;;;;;;7.95;6.05;;;-4.20;99.90;;;;;;5071931;28;20033;-58
2022/11/19 03:42:56;;;;;;;8.55;6.15;;;-4.20;99.90;;;;;;5063509;28;20044;-59
2022/11/19 03:45:26;;;;;;;8.50;6.35;;;-4.20;99.90;;;;;;5042706;28;20025;-58
2022/11/19 03:47:54;;;;;;;9.98;6.22;;;-4.20;99.90;;;;;;5062756;28;20036;-59
2022/11/19 03:50:47;;;;;;;8.05;5.68;;;-4.20;99.90;;;;;;5066890;28;20031;-59
2022/11/19 03:53:13;;;;;;;12.38;5.80;;;-4.20;99.90;;;;;;5070799;28;20025;-59
2022/11/19 03:56:08;;;;;;;8.07;6.13;;;-4.20;99.90;;;;;;5065925;28;20439;-59
2022/11/19 03:58:39;;;;;;;8.48;5.97;;;-4.20;99.90;;;;;;5051468;28;20550;-59
2022/11/19 04:01:05;;;;;;;8.70;5.90;;;-4.20;99.90;;;;;;5062814;28;20067;-59
2022/11/19 04:03:30;;;;;;;9.35;6.07;;;-4.20;99.90;;;;;;5069026;28;20154;-58
2022/11/19 04:05:56;;;;;;;10.05;5.72;;;-4.20;99.90;;;;;;5070482;28;20021;-59
2022/11/19 04:08:21;;;;;;;8.13;6.20;;;-4.20;99.90;;;;;;5063292;28;20856;-59
2022/11/19 04:10:47;;;;;;;8.68;5.63;;;-4.20;99.90;;;;;;5070714;28;20051;-59
2022/11/19 04:13:13;;;;;;;9.73;6.60;;;-4.20;99.90;;;;;;5066954;28;20029;-59
2022/11/19 04:15:38;;;;;;;8.68;6.20;;;-4.20;99.90;;;;;;5069130;28;20082;-58
2022/11/19 04:18:04;;;;;;;9.95;6.13;;;-4.20;99.90;;;;;;5069047;28;20029;-59
2022/11/19 04:20:29;;;;;;;5.35;4.85;;;-4.30;99.90;;;;;;5066282;28;20499;-58
2022/11/19 04:22:55;;;;;;;8.07;5.95;;;-4.40;99.90;;;;;;5069701;28;20028;-57
2022/11/19 04:25:20;;;;;;;6.95;5.25;;;-4.40;99.90;;;;;;5063322;28;20075;-59
2022/11/19 04:27:46;;;;;;;10.52;6.25;;;-4.40;99.90;;;;;;5070206;28;20050;-59
2022/11/19 04:30:13;;;;;;;8.95;5.78;;;-4.30;99.90;;;;;;5068047;28;20099;-57
2022/11/19 04:32:38;;;;;;;7.28;4.82;;;-4.30;99.90;;;;;;5068310;28;20610;-58
2022/11/19 04:35:04;;;;;;;8.73;6.00;;;-4.30;99.90;;;;;;5061929;28;20096;-59
2022/11/19 04:37:30;;;;;;;7.65;6.22;;;-4.30;99.90;;;;;;5067550;28;20036;-57
2022/11/19 04:39:55;;;;;;;8.80;6.03;;;-4.30;99.90;;;;;;5069474;28;20044;-59
2022/11/19 04:42:21;;;;;;;8.02;5.78;;;-4.30;99.90;;;;;;5061365;28;20439;-60
2022/11/19 04:44:46;;;;;;;6.93;5.63;;;-4.30;99.90;;;;;;5069429;28;20032;-59
2022/11/19 04:47:12;;;;;;;9.65;6.03;;;-4.30;99.90;;;;;;5067459;28;20029;-59
2022/11/19 04:49:37;;;;;;;7.53;4.93;;;-4.30;99.90;;;;;;5066584;28;20483;-59
2022/11/19 04:52:03;;;;;;;10.10;6.57;;;-4.30;99.90;;;;;;5068823;28;20034;-59
2022/11/19 04:54:29;;;;;;;8.95;5.93;;;-4.30;99.90;;;;;;5063362;28;20055;-59
2022/11/19 04:56:54;;;;;;;7.15;5.60;;;-4.30;99.90;;;;;;5069811;28;20052;-59
2022/11/19 04:59:20;;;;;;;8.93;6.22;;;-4.30;99.90;;;;;;5065948;28;20128;-58
2022/11/19 05:01:45;;;;;;;9.20;5.65;;;-4.20;99.90;;;;;;5068396;28;20033;-59
2022/11/19 05:04:11;;;;;;;10.48;6.57;;;-4.20;99.90;;;;;;5067408;28;20051;-59
2022/11/19 05:06:37;;;;;;;9.13;6.25;;;-4.20;99.90;;;;;;5065933;28;20347;-59
2022/11/19 05:09:03;;;;;;;12.10;6.63;;;-4.10;99.90;;;;;;5068421;28;20079;-59
2022/11/19 05:11:28;;;;;;;8.85;5.95;;;-4.00;99.90;;;;;;5062485;28;20041;-59
2022/11/19 05:13:54;;;;;;;9.40;5.72;;;-4.00;99.90;;;;;;5043775;28;20028;-58
2022/11/19 05:16:19;;;;;;;8.88;5.68;;;-3.90;99.90;;;;;;5064147;28;20029;-59
2022/11/19 05:18:45;;;;;;;10.13;6.22;;;-3.90;99.90;;;;;;5064087;28;20021;-59
2022/11/19 05:21:10;;;;;;;8.88;5.97;;;-3.80;99.90;;;;;;5066616;28;20040;-58
2022/11/19 05:23:36;;;;;;;10.88;6.15;;;-3.80;99.90;;;;;;5064860;28;20017;-59
2022/11/19 05:26:01;;;;;;;10.20;6.22;;;-3.80;99.90;;;;;;5069578;28;20572;-59
2022/11/19 05:28:27;;;;;;;8.23;5.78;;;-3.70;99.90;;;;;;5065107;28;20040;-59
2022/11/19 05:30:53;;;;;;;8.15;6.20;;;-3.70;99.90;;;;;;5050112;28;20024;-59
2022/11/19 05:33:19;;;;;;;8.65;6.10;;;-3.70;99.90;;;;;;5058995;28;20500;-59
2022/11/19 05:35:44;;;;;;;8.07;5.93;;;-3.60;99.90;;;;;;5060818;28;20036;-59
2022/11/19 05:38:10;;;;;;;8.85;5.80;;;-3.60;99.90;;;;;;5066198;28;20024;-60
2022/11/19 05:40:36;;;;;;;9.18;6.07;;;-3.50;99.90;;;;;;5062399;28;20025;-59
2022/11/19 05:43:05;;;;;;;8.20;6.10;;;-3.50;99.90;;;;;;5064732;28;20012;-59
2022/11/19 05:45:31;;;;;;;11.05;5.78;;;-3.40;99.90;;;;;;5067900;28;20024;-59
2022/11/19 05:47:57;;;;;;;8.38;6.15;;;-3.40;99.90;;;;;;5064208;28;20452;-59
2022/11/19 05:50:22;;;;;;;8.07;5.38;;;-3.30;99.90;;;;;;5066714;28;20059;-58
2022/11/19 05:52:48;;;;;;;8.48;5.75;;;-3.30;99.90;;;;;;5062969;28;20103;-59
2022/11/19 05:55:13;;;;;;;8.05;5.35;;;-3.30;99.90;;;;;;5064285;28;20040;-60
2022/11/19 05:57:39;;;;;;;7.20;5.85;;;-3.20;99.90;;;;;;5068144;28;20032;-59
2022/11/19 06:00:05;;;;;;;9.70;6.28;;;-3.20;99.90;;;;;;5063629;28;20028;-59
2022/11/19 06:02:31;;;;;;;9.88;6.53;;;-3.10;99.90;;;;;;5057295;28;20108;-59
2022/11/19 06:04:56;;;;;;;7.68;5.88;;;-3.10;99.90;;;;;;5062438;28;20543;-59
2022/11/19 06:07:22;;;;;;;7.88;5.75;;;-3.10;99.90;;;;;;5045840;28;20049;-59
2022/11/19 06:09:47;;;;;;;7.03;5.35;;;-3.10;99.90;;;;;;5059289;28;20040;-59
2022/11/19 06:12:13;;;;;;;7.88;5.80;;;-3.00;99.90;;;;;;5065389;28;20032;-60
2022/11/19 06:14:38;;;;;;;8.20;5.97;;;-3.00;99.90;;;;;;5043251;28;20051;-59
2022/11/19 06:17:04;;;;;;;8.15;5.57;;;-3.00;99.90;;;;;;5064992;28;20059;-59
2022/11/19 06:19:29;;;;;;;8.23;5.82;;;-2.90;99.90;;;;;;5067579;28;20029;-59
2022/11/19 06:21:55;;;;;;;8.27;5.35;;;-2.90;99.90;;;;;;5063446;28;20678;-59
2022/11/19 06:24:21;;;;;;;7.78;5.53;;;-2.90;99.90;;;;;;5066855;28;20100;-59
2022/11/19 06:26:46;;;;;;;8.68;5.22;;;-2.90;99.90;;;;;;5067922;28;20021;-58
2022/11/19 06:29:13;;;;;;;8.48;5.18;;;-2.90;99.90;;;;;;5044132;28;20021;-59
2022/11/19 06:31:39;;;;;;;7.47;5.28;;;-2.90;99.90;;;;;;5063358;28;20024;-58
2022/11/19 06:34:05;;;;;;;6.53;4.95;;;-2.90;99.90;;;;;;5062576;28;20013;-59
2022/11/19 06:36:30;;;;;;;6.82;4.95;;;-3.00;99.90;;;;;;5061998;28;20029;-59
2022/11/19 06:38:56;;;;;;;7.88;5.05;;;-2.90;99.90;;;;;;5064648;28;20108;-58
2022/11/19 06:41:21;;;;;;;6.68;5.40;;;-2.90;99.90;;;;;;5068330;28;20024;-60
2022/11/19 06:43:47;;;;;;;8.60;5.10;;;-3.00;99.90;;;;;;5064555;28;20029;-60
2022/11/19 06:46:14;;;;;;;8.68;4.68;;;-2.90;99.90;;;;;;5066829;28;20516;-59
2022/11/19 06:48:40;;;;;;;7.28;4.68;;;-3.00;99.90;;;;;;5063922;28;20365;-59
2022/11/19 06:51:06;;;;;;;7.57;4.93;;;-3.00;99.90;;;;;;5065981;28;20040;-59
2022/11/19 06:53:32;;;;;;;6.35;4.82;;;-3.00;99.90;;;;;;5059150;28;20029;-60
2022/11/19 06:56:03;;;;;;;8.35;5.55;;;-3.00;99.90;;;;;;5054185;28;20570;-59
2022/11/19 06:58:29;;;;;;;6.97;5.32;;;-3.00;99.90;;;;;;5057571;28;20087;-58
2022/11/19 07:00:54;;;;;;;6.70;4.57;;;-3.00;99.90;;;;;;5038635;28;20025;-59
2022/11/19 07:03:21;;;;;;;9.30;5.75;;;-3.00;99.90;;;;;;5067420;28;20032;-59
2022/11/19 07:05:47;;;;;;;7.70;5.25;;;-3.00;99.90;;;;;;5064493;28;20025;-59
2022/11/19 07:08:14;;;;;;;6.85;4.82;;;-3.00;99.90;;;;;;5068615;28;20566;-59
2022/11/19 07:10:39;;;;;;;8.63;5.60;;;-3.00;99.90;;;;;;5063235;28;20028;-59
2022/11/19 07:13:05;;;;;;;5.65;4.75;;;-3.00;99.90;;;;;;5064266;28;20496;-59
2022/11/19 07:15:31;;;;;;;8.95;5.38;;;-3.00;99.90;;;;;;5059392;28;20028;-59
2022/11/19 07:17:56;;;;;;;7.93;4.50;;;-3.00;99.90;;;;;;5063257;28;20028;-59
2022/11/19 07:20:22;;;;;;;8.88;5.68;;;-3.00;99.90;;;;;;5038183;28;20025;-60
2022/11/19 07:22:47;;;;;;;7.10;5.22;;;-3.00;99.90;;;;;;5063050;28;20032;-59
2022/11/19 07:25:13;;;;;;;11.30;5.07;;;-3.00;99.90;;;;;;5055380;28;20028;-59
2022/11/19 07:27:40;;;;;;;8.82;5.18;;;-3.00;99.90;;;;;;5068226;28;20107;-59
2022/11/19 07:30:06;;;;;;;10.15;4.85;;;-3.00;99.90;;;;;;5055238;28;20013;-60
2022/11/19 07:32:33;;;;;;;6.90;4.75;;;-3.00;99.90;;;;;;5067969;28;20424;-59
2022/11/19 07:34:58;;;;;;;7.78;4.80;;;-2.90;99.90;;;;;;5055198;28;20037;-60
2022/11/19 07:37:24;;;;;;;6.22;4.88;;;-2.90;99.90;;;;;;5065309;28;20040;-59
2022/11/19 07:39:50;;;;;;;7.57;5.50;;;-2.90;99.90;;;;;;5063724;28;20028;-57
2022/11/19 07:44:59;;;;;;;8.82;5.50;;;-2.80;99.90;;;;;;5064558;28;20028;-59
2022/11/19 07:47:25;;;;;;;7.40;4.57;;;-2.80;99.90;;;;;;5064315;28;20036;-59
2022/11/19 07:49:50;;;;;;;5.75;4.65;;;-2.70;99.90;;;;;;5065538;28;20036;-59
2022/11/19 07:52:16;;;;;;;6.93;5.13;;;-2.70;99.90;;;;;;5044915;28;20034;-59
2022/11/19 07:54:42;;;;;;;8.73;5.78;;;-2.70;99.90;;;;;;5068324;28;20021;-60
2022/11/19 07:57:07;;;;;;;8.38;5.45;;;-2.60;99.90;;;;;;5070152;28;20435;-57
2022/11/19 07:59:33;;;;;;;8.38;5.38;;;-2.60;99.90;;;;;;5067321;28;20025;-59
2022/11/19 08:01:58;;;;;;;7.30;5.88;;;-2.50;99.90;;;;;;5069580;28;20013;-59
2022/11/19 08:04:27;;;;;;;9.27;6.65;;;-2.50;99.90;;;;;;5066709;28;20031;-59
2022/11/19 08:06:52;;;;;;;5.97;5.00;;;-2.40;99.90;;;;;;5063193;28;20027;-59
2022/11/19 08:09:18;;;;;;;8.60;5.32;;;-2.30;99.90;;;;;;5067622;28;20033;-58
2022/11/19 08:11:43;;;;;;;9.80;5.63;;;-2.20;99.90;;;;;;5066420;28;20029;-60
2022/11/19 08:14:12;;;;;;;6.93;4.90;;;-2.10;99.90;;;;;;5071303;28;20682;-60
2022/11/19 08:19:22;;;;;;;6.40;4.97;;;-2.00;99.90;;;;;;5059324;28;20071;-60
2022/11/19 08:21:47;;;;;;;8.63;5.30;;;-1.90;99.90;;;;;;5059719;28;20024;-59
2022/11/19 08:24:17;;;;;;;6.85;4.97;;;-1.90;99.90;;;;;;5067620;28;20203;-59
2022/11/19 08:26:43;;;;;;;8.27;5.20;;;-1.80;99.90;;;;;;5042729;28;20531;-59
2022/11/19 08:29:09;;;;;;;7.25;5.10;;;-1.80;99.90;;;;;;5065601;28;20400;-59
2022/11/19 08:31:35;;;;;;;6.93;5.13;;;-1.70;99.90;;;;;;5063558;28;20029;-59
2022/11/19 08:34:01;;;;;;;7.43;5.15;;;-1.60;99.90;;;;;;5046743;28;20024;-58
2022/11/19 08:36:27;;;;;;;7.20;4.60;;;-1.50;99.90;;;;;;5063986;28;20373;-59
2022/11/19 08:38:56;;;;;;;9.30;5.07;;;-1.50;99.90;;;;;;5066589;28;20035;-59
2022/11/19 08:44:06;;;;;;;9.00;5.07;;;-1.30;99.90;;;;;;5065120;28;20244;-59
2022/11/19 08:46:31;;;;;;;5.22;4.07;;;-1.30;99.90;;;;;;5071312;28;20481;-60
2022/11/19 08:48:57;;;;;;;6.72;4.95;;;-1.20;99.90;;;;;;5062311;28;20576;-59
2022/11/19 08:51:23;;;;;;;7.82;4.70;;;-1.20;99.90;;;;;;5039380;28;20404;-59
2022/11/19 08:53:51;;;;;;;5.90;4.88;;;-1.10;99.90;;;;;;5065023;28;20025;-61
2022/11/19 08:56:17;;;;;;;7.47;5.15;;;-1.10;99.90;;;;;;5065255;28;20095;-60
2022/11/19 08:58:42;;;;;;;7.25;5.65;;;-1.00;99.90;;;;;;5070035;28;20117;-60
2022/11/19 09:01:10;;;;;;;8.45;5.45;;;-1.00;99.90;;;;;;5068257;28;20037;-60
2022/11/19 09:03:35;;;;;;;8.73;5.95;;;-1.00;99.90;;;;;;5070088;28;20039;-61
2022/11/19 09:06:01;;;;;;;6.75;5.40;;;-0.90;99.90;;;;;;5067469;28;20104;-58
2022/11/19 09:08:27;;;;;;;8.98;5.78;;;-0.90;99.90;;;;;;5069411;28;20476;-61
2022/11/19 09:10:52;;;;;;;10.43;6.18;;;-0.80;99.90;;;;;;5068902;28;20067;-61
2022/11/19 09:13:18;;;;;;;8.73;6.22;;;-0.80;99.90;;;;;;5066419;28;20048;-60
2022/11/19 09:15:47;;;;;;;8.18;5.13;;;-0.80;99.90;;;;;;5068428;28;20033;-61
2022/11/19 09:18:13;;;;;;;7.63;4.72;;;-0.80;99.90;;;;;;5039488;28;20033;-61
2022/11/19 09:20:39;;;;;;;9.25;5.57;;;-0.70;99.90;;;;;;5062027;28;20024;-61
2022/11/19 09:23:04;;;;;;;8.82;5.30;;;-0.70;99.90;;;;;;5062730;28;20024;-61
2022/11/19 09:25:30;;;;;;;8.75;5.57;;;-0.70;99.90;;;;;;5067627;28;20507;-60
2022/11/19 09:27:55;;;;;;;5.80;5.13;;;-0.60;99.90;;;;;;5069259;28;20503;-59
2022/11/19 09:30:21;;;;;;;7.22;4.80;;;-0.60;99.90;;;;;;5065444;28;20500;-61
2022/11/19 09:32:46;;;;;;;8.48;5.05;;;-0.60;99.90;;;;;;5094284;22;20036;-58
2022/11/19 09:35:13;;;;;;;9.32;5.28;;;-0.60;99.90;;;;;;5070869;28;20024;-56
2022/11/19 09:37:38;;;;;;;6.97;5.28;;;-0.50;99.90;;;;;;5089496;28;20032;-57
2022/11/19 09:40:04;;;;;;;6.93;5.43;;;-0.40;99.90;;;;;;5069735;28;20105;-55
2022/11/19 09:42:42;;;;;;;9.30;5.22;;;-0.30;99.90;;;;;;5057938;28;20439;-57
2022/11/19 09:45:17;;;;;;;8.18;5.00;;;-0.20;99.90;;;;;;5052938;28;20024;-57
2022/11/19 09:47:58;;;;;;;6.90;5.03;;;-0.10;99.90;;;;;;5077963;28;20032;-55
2022/11/19 09:50:30;;;;;;;10.50;5.32;;;0.00;99.90;;;;;;5067568;28;20491;-58
2022/11/19 09:53:06;;;;;;;8.98;5.30;;;0.10;99.90;;;;;;5061568;28;20035;-59
2022/11/19 09:55:35;;;;;;;8.13;4.97;;;0.20;99.90;;;;;;5074454;28;20399;-58
2022/11/19 09:58:04;;;;;;;14.77;5.95;;;0.20;99.90;;;;;;5069215;28;20379;-57
2022/11/19 10:00:31;;;;;;;8.05;6.00;;;0.30;99.90;;;;;;5073067;28;20036;-58
2022/11/19 10:03:00;;;;;;;7.68;5.75;;;0.40;99.90;;;;;;5076685;28;20024;-58
2022/11/19 10:05:41;;;;;;;6.45;4.95;;;0.60;99.90;;;;;;5071890;28;20044;-59
2022/11/19 10:08:48;;;;;;;5.85;5.25;;;0.60;99.90;;;;;;5060071;28;20028;-58
2022/11/19 10:11:27;;;;;;;6.75;4.47;;;0.80;99.90;;;;;;5070181;28;20062;-57
2022/11/19 10:14:11;;;;;;;8.55;5.20;;;0.90;99.90;;;;;;5075292;28;20028;-56
2022/11/19 10:16:54;;;;;;;7.20;4.85;;;0.90;99.90;;;;;;5072869;28;20032;-57
2022/11/19 10:19:25;;;;;;;7.50;4.18;;;1.00;99.90;;;;;;5079000;28;20028;-58
2022/11/19 10:21:57;;;;;;;7.50;4.70;;;1.10;99.90;;;;;;5072656;28;20024;-59
2022/11/19 10:24:38;;;;;;;5.15;3.92;;;1.20;99.90;;;;;;5070596;28;20036;-58
2022/11/19 10:27:28;;;;;;;5.22;3.35;;;1.20;99.90;;;;;;5065671;28;20024;-58
2022/11/19 10:29:58;;;;;;;4.50;3.45;;;1.30;99.90;;;;;;5069358;28;20054;-59
2022/11/19 10:32:37;;;;;;;5.30;3.63;;;1.40;99.90;;;;;;5063148;28;20039;-58
2022/11/19 10:35:13;;;;;;;4.20;3.35;;;1.40;99.90;;;;;;5069052;28;20048;-58
2022/11/19 10:37:45;;;;;;;6.10;3.33;;;1.50;99.90;;;;;;5058265;28;20032;-55
2022/11/19 10:40:19;;;;;;;4.30;3.17;;;1.50;99.90;;;;;;5063969;28;20090;-58
2022/11/19 10:42:51;;;;;;;4.15;3.38;;;1.60;99.90;;;;;;5063925;28;20012;-57
2022/11/19 10:45:21;;;;;;;4.63;3.17;;;1.60;99.90;;;;;;5051730;28;20492;-57
2022/11/19 10:48:13;;;;;;;5.07;3.70;;;1.60;99.90;;;;;;5070006;28;20073;-57
2022/11/19 10:50:40;;;;;;;7.15;3.63;;;1.60;99.90;;;;;;5069788;28;20009;-54
2022/11/19 10:53:15;;;;;;;6.18;4.20;;;1.70;99.90;;;;;;5059301;28;20044;-59
2022/11/19 10:55:49;;;;;;;5.75;3.63;;;1.80;99.90;;;;;;5073636;28;20074;-57
2022/11/19 10:58:21;;;;;;;4.10;3.25;;;1.80;99.90;;;;;;5076402;28;20032;-60
2022/11/19 11:00:48;;;;;;;6.28;2.58;;;1.90;99.90;;;;;;5069837;28;20032;-58
2022/11/19 11:03:24;;;;;;;7.68;3.38;;;2.00;99.90;;;;;;5065275;28;20055;-54
2022/11/19 11:05:55;;;;;;;;;;;2.00;99.90;;;;;;5061731;28;20068;-59
2022/11/19 11:08:21;;;;;;;3.53;2.92;;;2.00;99.90;;;;;;5060517;28;19996;-59
2022/11/19 11:10:47;;;;;;;4.35;3.38;;;2.00;99.90;;;;;;5069915;28;20037;-60
2022/11/19 11:16:09;;;;;;;4.85;3.15;;;2.10;99.90;;;;;;5070324;28;20051;-60
2022/11/19 11:18:39;;;;;;;2.95;2.65;;;2.10;99.90;;;;;;5076819;28;20790;-59
2022/11/19 11:21:11;;;;;;;4.85;2.60;;;2.20;99.90;;;;;;5058628;28;20040;-60
2022/11/19 11:23:48;;;;;;;3.97;2.95;;;2.20;99.90;;;;;;5079205;28;20028;-57
2022/11/19 11:26:20;;;;;;;6.90;3.78;;;2.30;99.90;;;;;;5080549;28;20021;-59
2022/11/19 11:29:11;;;;;;;6.60;3.55;;;2.40;99.90;;;;;;5070743;28;20478;-59
2022/11/19 11:31:42;;;;;;;5.35;3.33;;;2.40;99.90;;;;;;5073993;28;20088;-57
2022/11/19 11:34:29;;;;;;;4.30;3.05;;;2.40;99.90;;;;;;5074682;28;20028;-59
2022/11/19 11:36:55;;;;;;;3.38;2.22;;;2.40;99.90;;;;;;5064881;28;20040;-59
2022/11/19 11:39:26;;;;;;;3.17;2.40;;;2.30;99.90;;;;;;5070234;28;20479;-57
2022/11/19 11:41:52;;;;;;;3.95;2.58;;;2.30;99.90;;;;;;5070337;28;20628;-57
2022/11/19 11:44:20;;;;;;;3.92;2.47;;;2.30;99.90;;;;;;5078447;28;20028;-59
2022/11/19 11:47:01;;;;;;;3.63;2.85;;;2.30;99.90;;;;;;5075911;28;20024;-58
2022/11/19 11:49:32;;;;;;;5.03;2.72;;;2.30;99.90;;;;;;5065161;28;20024;-58
2022/11/19 11:52:02;;;;;;;4.47;2.80;;;2.30;99.90;;;;;;5066716;28;20024;-54
2022/11/19 11:54:28;;;;;;;5.22;2.90;;;2.30;99.90;;;;;;5075423;28;20024;-59
2022/11/19 11:57:26;;;;;;;6.28;3.10;;;2.40;99.90;;;;;;5061531;28;20027;-58
2022/11/19 11:59:53;;;;;;;4.95;2.67;;;2.40;99.90;;;;;;5018029;28;20040;-58
2022/11/19 12:02:33;;;;;;;4.40;2.30;;;2.40;99.90;;;;;;5077976;28;20017;-58
2022/11/19 12:05:15;;;;;;;4.03;2.65;;;2.50;99.90;;;;;;5075781;28;20056;-59
2022/11/19 12:08:02;;;;;;;3.15;2.38;;;2.50;99.90;;;;;;5077859;28;20096;-56
2022/11/19 12:11:13;;;;;;;2.88;2.28;;;2.50;99.90;;;;;;5070009;28;20186;-58
2022/11/19 12:14:08;;;;;;;2.42;1.98;;;2.60;99.90;;;;;;5059789;28;20517;-55
2022/11/19 12:17:03;;;;;;;3.17;2.33;;;2.70;99.90;;;;;;5064528;28;20044;-59
2022/11/19 12:19:46;;;;;;;5.10;2.75;;;2.70;99.90;;;;;;5071499;28;20034;-59
2022/11/19 12:22:35;;;;;;;5.07;2.30;;;2.80;99.90;;;;;;5074406;28;20116;-55
2022/11/19 12:25:26;;;;;;;7.07;1.90;;;2.90;99.90;;;;;;5078713;28;20017;-56
2022/11/19 12:28:27;;;;;;;4.10;1.95;;;3.00;99.90;;;;;;5033653;28;20040;-57
2022/11/19 12:30:59;;;;;;;3.17;1.80;;;3.10;99.90;;;;;;4983520;28;20456;-54
2022/11/19 12:33:47;;;;;;;2.33;1.02;;;3.20;99.90;;;;;;5058053;28;20048;-55
2022/11/19 12:36:40;;;;;;;3.50;1.13;;;3.20;99.90;;;;;;5072490;28;20044;-57
2022/11/19 12:39:21;;;;;;;2.63;1.63;;;3.20;99.90;;;;;;5066962;28;20147;-59
2022/11/19 12:42:05;;;;;;;3.42;1.45;;;3.20;99.90;;;;;;5076263;28;20046;-57
2022/11/19 12:44:56;;;;;;;1.92;1.23;;;3.10;99.90;;;;;;5076700;28;20175;-59
2022/11/19 12:47:40;;;;;;;2.70;1.52;;;3.10;99.90;;;;;;5065304;28;20494;-59
2022/11/19 12:50:14;;;;;;;2.00;1.50;;;3.10;99.90;;;;;;5075106;28;20020;-58
2022/11/19 12:52:50;;;;;;;1.75;1.38;;;3.10;99.90;;;;;;5071319;28;20021;-59
2022/11/19 12:55:37;;;;;;;4.32;1.80;;;3.00;99.90;;;;;;5051253;28;20522;-58
2022/11/19 12:58:31;;;;;;;4.18;2.10;;;3.00;99.90;;;;;;5057959;28;20040;-58
2022/11/19 13:01:01;;;;;;;2.72;2.00;;;3.00;99.90;;;;;;5065546;28;20039;-59
2022/11/19 13:03:44;;;;;;;2.55;1.63;;;3.00;99.90;;;;;;5073884;28;20035;-54
2022/11/19 13:06:19;;;;;;;9.90;2.90;;;3.00;99.90;;;;;;5074857;28;20048;-57
2022/11/19 13:08:50;;;;;;;7.75;2.40;;;2.90;99.90;;;;;;5073788;28;20056;-52
2022/11/19 13:11:28;;;;;;;4.80;2.63;;;2.80;99.90;;;;;;5072634;28;20466;-57
2022/11/19 13:13:59;;;;;;;4.45;2.38;;;2.90;99.90;;;;;;5061068;28;20024;-57
2022/11/19 13:16:28;;;;;;;2.75;2.00;;;2.90;99.90;;;;;;5074196;28;20119;-58
2022/11/19 13:19:07;;;;;;;3.17;2.30;;;2.80;99.90;;;;;;5071846;28;20536;-56
2022/11/19 13:21:42;;;;;;;4.22;1.98;;;2.80;99.90;;;;;;5077504;28;20054;-56
2022/11/19 13:24:24;;;;;;;3.25;1.80;;;2.80;99.90;;;;;;5070676;28;20490;-58
2022/11/19 13:26:51;;;;;;;3.70;1.98;;;2.80;99.90;;;;;;5070147;28;20026;-56
2022/11/19 13:29:38;;;;;;;3.08;1.73;;;2.80;99.90;;;;;;5070518;28;20028;-58
2022/11/19 13:32:23;;;;;;;3.17;2.22;;;2.80;99.90;;;;;;5071855;28;20024;-56